createdAt,value
2018-06-11T00:00:45.023Z,16.20
2018-06-11T00:01:45.078Z,16.00
2018-06-11T00:02:45.028Z,16.00
2018-06-11T00:03:45.029Z,16.30
2018-06-11T00:04:45.030Z,16.40
2018-06-11T00:05:45.030Z,16.50
2018-06-11T00:06:45.038Z,16.40
2018-06-11T00:07:45.032Z,16.80
2018-06-11T00:08:45.039Z,16.90
2018-06-11T00:09:45.034Z,16.40
2018-06-11T00:10:45.035Z,17.00
2018-06-11T00:11:45.039Z,17.00
2018-06-11T00:12:45.037Z,16.80
2018-06-11T00:13:45.035Z,17.60
2018-06-11T00:14:45.039Z,17.50
2018-06-11T00:15:45.039Z,17.80
2018-06-11T00:16:45.039Z,17.10
2018-06-11T00:17:45.039Z,17.50
2018-06-11T00:18:45.057Z,16.70
2018-06-11T00:19:45.043Z,16.80
2018-06-11T00:20:45.044Z,16.90
2018-06-11T00:21:45.044Z,17.80
2018-06-11T00:22:45.050Z,18.50
2018-06-11T00:23:45.048Z,19.30
2018-06-11T00:24:45.048Z,19.80
2018-06-11T00:25:45.049Z,19.20
2018-06-11T00:26:45.053Z,20.60
2018-06-11T00:27:45.056Z,20.70
2018-06-11T00:28:45.052Z,19.70
2018-06-11T00:29:45.053Z,18.60
2018-06-11T00:30:45.052Z,17.20
2018-06-11T00:31:45.052Z,19.00
2018-06-11T00:32:45.057Z,18.80
2018-06-11T00:33:45.055Z,18.50
2018-06-11T00:34:45.062Z,17.90
2018-06-11T00:35:45.060Z,18.10
2018-06-11T00:36:45.058Z,17.50
2018-06-11T00:37:45.065Z,18.40
2018-06-11T00:38:45.062Z,17.50
2018-06-11T00:39:45.061Z,17.10
2018-06-11T00:40:45.062Z,17.30
2018-06-11T00:41:45.066Z,17.60
2018-06-11T00:42:45.066Z,17.40
2018-06-11T00:43:45.064Z,17.10
2018-06-11T00:44:45.067Z,17.20
2018-06-11T00:45:45.068Z,18.80
2018-06-11T00:46:45.069Z,18.60
2018-06-11T00:47:45.063Z,18.00
2018-06-11T00:48:45.066Z,18.20
2018-06-11T00:49:45.068Z,17.60
2018-06-11T00:50:45.072Z,18.20
2018-06-11T00:51:45.073Z,18.20
2018-06-11T00:52:45.076Z,18.70
2018-06-11T00:53:45.073Z,19.20
2018-06-11T00:54:45.075Z,19.60
2018-06-11T00:55:45.075Z,20.30
2018-06-11T00:56:45.087Z,20.40
2018-06-11T00:57:45.079Z,18.50
2018-06-11T00:58:45.079Z,18.20
2018-06-11T00:59:45.082Z,20.00
2018-06-11T01:00:45.081Z,20.10
2018-06-11T01:01:45.081Z,20.40
2018-06-11T01:02:45.082Z,20.50
2018-06-11T01:03:45.078Z,20.30
2018-06-11T01:04:45.082Z,19.60
2018-06-11T01:05:45.080Z,19.20
2018-06-11T01:06:45.082Z,19.60
2018-06-11T01:07:45.087Z,19.80
2018-06-11T01:08:45.086Z,20.60
2018-06-11T01:09:45.089Z,20.00
2018-06-11T01:10:45.087Z,19.40
2018-06-11T01:11:45.087Z,18.70
2018-06-11T01:12:45.089Z,19.00
2018-06-11T01:13:45.090Z,19.00
2018-06-11T01:14:45.092Z,18.50
2018-06-11T01:15:45.092Z,17.40
2018-06-11T01:16:45.093Z,17.40
2018-06-11T01:17:45.097Z,17.50
2018-06-11T01:18:45.095Z,17.20
2018-06-11T01:19:45.100Z,16.70
2018-06-11T01:20:45.097Z,17.60
2018-06-11T01:21:45.097Z,17.50
2018-06-11T01:22:45.093Z,16.70
2018-06-11T01:23:45.102Z,16.80
2018-06-11T01:24:45.099Z,17.10
2018-06-11T01:25:45.100Z,18.50
2018-06-11T01:26:45.100Z,18.40
2018-06-11T01:27:45.098Z,17.80
2018-06-11T01:28:45.102Z,17.30
2018-06-11T01:29:45.102Z,17.10
2018-06-11T01:30:45.109Z,17.40
2018-06-11T01:31:45.106Z,17.30
2018-06-11T01:32:45.104Z,17.40
2018-06-11T01:33:45.110Z,18.30
2018-06-11T01:34:45.107Z,17.90
2018-06-11T01:35:45.107Z,17.70
2018-06-11T01:36:45.107Z,18.60
2018-06-11T01:37:45.109Z,18.10
2018-06-11T01:38:45.109Z,17.50
2018-06-11T01:39:45.104Z,17.80
2018-06-11T01:40:45.111Z,17.30
2018-06-11T01:41:45.110Z,17.60
2018-06-11T01:42:45.111Z,17.40
2018-06-11T01:43:45.112Z,17.10
2018-06-11T01:44:45.112Z,17.40
2018-06-11T01:45:45.109Z,17.80
2018-06-11T01:46:45.112Z,18.10
2018-06-11T01:47:45.113Z,17.70
2018-06-11T01:48:45.115Z,17.70
2018-06-11T01:49:45.115Z,18.40
2018-06-11T01:50:45.122Z,18.70
2018-06-11T01:51:45.117Z,18.70
2018-06-11T01:52:45.117Z,17.70
2018-06-11T01:53:45.118Z,17.50
2018-06-11T01:54:45.118Z,18.20
2018-06-11T01:55:45.121Z,19.60
2018-06-11T01:56:45.115Z,19.50
2018-06-11T01:57:45.117Z,20.10
2018-06-11T01:58:45.121Z,20.20
2018-06-11T01:59:45.117Z,20.40
2018-06-11T02:00:45.122Z,19.00
2018-06-11T02:01:45.121Z,18.20
2018-06-11T02:02:45.121Z,18.30
2018-06-11T02:03:45.122Z,19.00
2018-06-11T02:04:45.121Z,19.00
2018-06-11T02:05:45.124Z,18.10
2018-06-11T02:06:45.137Z,18.50
2018-06-11T02:07:45.123Z,18.80
2018-06-11T02:08:45.123Z,19.30
2018-06-11T02:09:45.127Z,19.50
2018-06-11T02:10:45.125Z,18.70
2018-06-11T02:11:45.125Z,18.00
2018-06-11T02:12:45.120Z,17.40
2018-06-11T02:13:45.124Z,17.90
2018-06-11T02:14:45.127Z,19.30
2018-06-11T02:15:45.126Z,17.90
2018-06-11T02:16:45.127Z,18.40
2018-06-11T02:17:45.127Z,18.30
2018-06-11T02:18:45.130Z,19.30
2018-06-11T02:19:45.128Z,18.70
2018-06-11T02:20:45.128Z,19.10
2018-06-11T02:21:45.129Z,18.80
2018-06-11T02:22:45.132Z,17.90
2018-06-11T02:23:45.129Z,18.50
2018-06-11T02:24:45.129Z,18.90
2018-06-11T02:25:45.130Z,19.20
2018-06-11T02:26:45.134Z,19.10
2018-06-11T02:27:45.141Z,19.60
2018-06-11T02:28:45.131Z,20.20
2018-06-11T02:29:45.130Z,19.20
2018-06-11T02:30:45.131Z,18.50
2018-06-11T02:31:45.132Z,18.80
2018-06-11T02:32:45.136Z,19.60
2018-06-11T02:33:45.133Z,20.00
2018-06-11T02:34:45.132Z,18.60
2018-06-11T02:35:45.134Z,19.00
2018-06-11T02:36:45.136Z,19.30
2018-06-11T02:37:45.133Z,20.70
2018-06-11T02:38:45.138Z,20.60
2018-06-11T02:39:45.133Z,21.60
2018-06-11T02:40:45.133Z,20.80
2018-06-11T02:41:45.133Z,20.70
2018-06-11T02:42:45.133Z,21.00
2018-06-11T02:43:45.133Z,20.60
2018-06-11T02:44:45.133Z,20.60
2018-06-11T02:45:45.134Z,19.90
2018-06-11T02:46:45.133Z,20.40
2018-06-11T02:47:45.135Z,21.20
2018-06-11T02:48:45.140Z,20.40
2018-06-11T02:49:45.135Z,19.80
2018-06-11T02:50:45.134Z,21.30
2018-06-11T02:51:45.133Z,20.70
2018-06-11T02:52:45.138Z,19.80
2018-06-11T02:53:45.137Z,20.30
2018-06-11T02:54:45.135Z,21.20
2018-06-11T02:55:45.133Z,21.30
2018-06-11T02:56:45.137Z,20.80
2018-06-11T02:57:45.134Z,20.90
2018-06-11T02:58:45.135Z,22.00
2018-06-11T02:59:45.134Z,22.10
2018-06-11T03:00:45.139Z,19.80
2018-06-11T03:01:45.135Z,20.40
2018-06-11T03:02:45.141Z,19.60
2018-06-11T03:03:45.137Z,20.40
2018-06-11T03:04:45.135Z,20.40
2018-06-11T03:05:45.135Z,19.90
2018-06-11T03:06:45.135Z,19.20
2018-06-11T03:07:45.136Z,19.60
2018-06-11T03:08:45.136Z,18.70
2018-06-11T03:09:45.138Z,18.70
2018-06-11T03:10:45.141Z,19.50
2018-06-11T03:11:45.133Z,18.20
2018-06-11T03:12:45.135Z,18.80
2018-06-11T03:13:45.136Z,18.20
2018-06-11T03:14:45.134Z,18.90
2018-06-11T03:15:45.133Z,19.00
2018-06-11T03:16:45.135Z,18.10
2018-06-11T03:17:45.141Z,17.70
2018-06-11T03:18:45.140Z,18.30
2018-06-11T03:19:45.134Z,17.80
2018-06-11T03:20:45.135Z,18.00
2018-06-11T03:21:45.163Z,17.80
2018-06-11T03:22:45.136Z,18.00
2018-06-11T03:23:45.166Z,17.70
2018-06-11T03:24:45.141Z,17.70
2018-06-11T03:25:45.137Z,17.40
2018-06-11T03:26:45.139Z,16.50
2018-06-11T03:27:45.136Z,17.30
2018-06-11T03:28:45.138Z,18.10
2018-06-11T03:29:45.134Z,16.30
2018-06-11T03:30:45.133Z,16.30
2018-06-11T03:31:45.136Z,16.20
2018-06-11T03:32:45.138Z,16.30
2018-06-11T03:33:45.136Z,16.10
2018-06-11T03:34:45.139Z,15.40
2018-06-11T03:35:45.187Z,15.40
2018-06-11T03:36:45.139Z,15.80
2018-06-11T03:37:45.137Z,15.20
2018-06-11T03:38:45.138Z,15.50
2018-06-11T03:39:45.140Z,16.50
2018-06-11T03:40:45.147Z,15.90
2018-06-11T03:41:45.139Z,17.00
2018-06-11T03:42:45.140Z,16.40
2018-06-11T03:43:45.140Z,17.00
2018-06-11T03:44:45.135Z,17.00
2018-06-11T03:45:45.138Z,16.70
2018-06-11T03:46:45.139Z,16.00
2018-06-11T03:47:45.140Z,16.10
2018-06-11T03:48:45.142Z,16.30
2018-06-11T03:49:45.142Z,14.80
2018-06-11T03:50:45.145Z,16.10
2018-06-11T03:51:45.152Z,16.00
2018-06-11T03:52:45.156Z,15.70
2018-06-11T03:53:45.143Z,15.20
2018-06-11T03:54:45.146Z,15.30
2018-06-11T03:55:45.146Z,15.60
2018-06-11T03:56:45.153Z,14.80
2018-06-11T03:57:45.146Z,14.30
2018-06-11T03:58:45.152Z,15.20
2018-06-11T03:59:45.145Z,15.10
2018-06-11T04:00:45.211Z,16.00
2018-06-11T04:01:45.147Z,16.00
2018-06-11T04:02:45.148Z,15.90
2018-06-11T04:03:45.146Z,15.80
2018-06-11T04:04:45.150Z,16.50
2018-06-11T04:05:45.151Z,16.00
2018-06-11T04:06:45.152Z,15.50
2018-06-11T04:07:45.154Z,15.80
2018-06-11T04:08:45.153Z,16.90
2018-06-11T04:09:45.156Z,16.20
2018-06-11T04:10:45.221Z,16.50
2018-06-11T04:11:45.155Z,17.00
2018-06-11T04:12:45.157Z,15.90
2018-06-11T04:13:45.155Z,16.40
2018-06-11T04:14:45.155Z,16.40
2018-06-11T04:15:45.155Z,17.00
2018-06-11T04:16:45.156Z,16.50
2018-06-11T04:17:45.156Z,16.90
2018-06-11T04:18:45.159Z,16.80
2018-06-11T04:19:45.157Z,16.70
2018-06-11T04:20:45.158Z,17.40
2018-06-11T04:21:45.160Z,16.50
2018-06-11T04:22:45.160Z,16.70
2018-06-11T04:23:45.159Z,17.20
2018-06-11T04:24:45.165Z,16.70
2018-06-11T04:25:45.161Z,16.40
2018-06-11T04:26:45.160Z,16.10
2018-06-11T04:27:45.165Z,16.90
2018-06-11T04:28:45.161Z,16.80
2018-06-11T04:29:45.169Z,16.50
2018-06-11T04:30:45.166Z,16.80
2018-06-11T04:31:45.165Z,16.80
2018-06-11T04:32:45.168Z,17.00
2018-06-11T04:33:45.167Z,17.40
2018-06-11T04:34:45.179Z,16.90
2018-06-11T04:35:45.163Z,17.00
2018-06-11T04:36:45.165Z,17.20
2018-06-11T04:37:45.186Z,17.30
2018-06-11T04:38:45.167Z,16.90
2018-06-11T04:39:45.167Z,16.90
2018-06-11T04:40:45.170Z,17.20
2018-06-11T04:41:45.169Z,18.00
2018-06-11T04:42:45.168Z,16.90
2018-06-11T04:43:45.169Z,16.70
2018-06-11T04:44:45.172Z,16.60
2018-06-11T04:45:45.175Z,16.60
2018-06-11T04:46:45.173Z,16.70
2018-06-11T04:47:45.171Z,16.30
2018-06-11T04:48:45.172Z,17.40
2018-06-11T04:49:45.172Z,16.50
2018-06-11T04:50:45.173Z,16.40
2018-06-11T04:51:45.171Z,16.50
2018-06-11T04:52:45.176Z,16.30
2018-06-11T04:53:45.178Z,16.20
2018-06-11T04:54:45.178Z,17.00
2018-06-11T04:55:45.175Z,16.30
2018-06-11T04:56:45.177Z,16.70
2018-06-11T04:57:45.178Z,16.20
2018-06-11T04:58:45.179Z,16.00
2018-06-11T04:59:45.177Z,16.30
2018-06-11T05:00:45.179Z,16.00
2018-06-11T05:01:45.188Z,17.20
2018-06-11T05:02:45.182Z,16.60
2018-06-11T05:03:45.183Z,16.40
2018-06-11T05:04:45.183Z,16.80
2018-06-11T05:05:45.184Z,17.30
2018-06-11T05:06:45.185Z,16.60
2018-06-11T05:07:45.184Z,17.20
2018-06-11T05:08:45.184Z,17.70
2018-06-11T05:09:45.187Z,17.60
2018-06-11T05:10:45.188Z,17.10
2018-06-11T05:11:45.185Z,16.50
2018-06-11T05:12:45.190Z,16.20
2018-06-11T05:13:45.189Z,17.00
2018-06-11T05:14:45.193Z,17.00
2018-06-11T05:15:45.188Z,16.10
2018-06-11T05:16:45.190Z,17.00
2018-06-11T05:17:45.195Z,16.20
2018-06-11T05:18:45.195Z,16.20
2018-06-11T05:19:45.197Z,16.90
2018-06-11T05:20:45.195Z,16.60
2018-06-11T05:21:45.195Z,16.50
2018-06-11T05:22:45.199Z,16.90
2018-06-11T05:23:45.201Z,17.10
2018-06-11T05:24:45.200Z,17.00
2018-06-11T05:25:45.201Z,16.90
2018-06-11T05:26:45.201Z,17.80
2018-06-11T05:27:45.202Z,16.70
2018-06-11T05:28:45.210Z,17.10
2018-06-11T05:29:45.204Z,17.50
2018-06-11T05:30:45.206Z,16.40
2018-06-11T05:31:45.205Z,17.20
2018-06-11T05:32:45.212Z,16.50
2018-06-11T05:33:45.209Z,17.20
2018-06-11T05:34:45.257Z,16.60
2018-06-11T05:35:45.211Z,16.40
2018-06-11T05:36:45.212Z,17.30
2018-06-11T05:37:45.213Z,17.60
2018-06-11T05:38:45.217Z,16.90
2018-06-11T05:39:45.216Z,17.00
2018-06-11T05:40:45.218Z,16.10
2018-06-11T05:41:45.218Z,15.70
2018-06-11T05:42:45.222Z,16.30
2018-06-11T05:43:45.221Z,16.70
2018-06-11T05:44:45.222Z,16.90
2018-06-11T05:45:45.223Z,16.80
2018-06-11T05:46:45.225Z,16.80
2018-06-11T05:47:45.228Z,17.40
2018-06-11T05:48:45.227Z,18.20
2018-06-11T05:49:45.229Z,18.00
2018-06-11T05:50:45.231Z,18.90
2018-06-11T05:51:45.234Z,18.00
2018-06-11T05:52:45.232Z,17.90
2018-06-11T05:53:45.239Z,18.90
2018-06-11T05:54:45.236Z,18.60
2018-06-11T05:55:45.240Z,19.10
2018-06-11T05:56:45.240Z,19.70
2018-06-11T05:57:45.239Z,19.30
2018-06-11T05:58:45.240Z,19.10
2018-06-11T05:59:45.241Z,19.60
2018-06-11T06:00:45.242Z,19.60
2018-06-11T06:01:45.244Z,20.30
2018-06-11T06:02:45.245Z,19.40
2018-06-11T06:03:45.249Z,20.20
2018-06-11T06:04:45.248Z,20.50
2018-06-11T06:05:45.253Z,19.90
2018-06-11T06:06:45.253Z,20.20
2018-06-11T06:07:45.251Z,20.20
2018-06-11T06:08:45.264Z,19.70
2018-06-11T06:09:45.256Z,20.80
2018-06-11T06:10:45.257Z,20.00
2018-06-11T06:11:45.257Z,20.30
2018-06-11T06:12:45.259Z,21.30
2018-06-11T06:13:45.259Z,20.90
2018-06-11T06:14:45.262Z,20.60
2018-06-11T06:15:45.263Z,20.00
2018-06-11T06:16:45.265Z,20.20
2018-06-11T06:17:45.269Z,19.80
2018-06-11T06:18:45.268Z,19.20
2018-06-11T06:19:45.268Z,20.10
2018-06-11T06:20:45.272Z,19.90
2018-06-11T06:21:45.271Z,19.50
2018-06-11T06:22:45.273Z,19.30
2018-06-11T06:23:45.272Z,19.30
2018-06-11T06:24:45.278Z,19.60
2018-06-11T06:25:45.278Z,19.00
2018-06-11T06:26:45.321Z,19.10
2018-06-11T06:27:45.283Z,18.50
2018-06-11T06:28:45.283Z,19.60
2018-06-11T06:29:45.286Z,19.30
2018-06-11T06:30:45.286Z,19.20
2018-06-11T06:31:45.286Z,18.60
2018-06-11T06:32:45.290Z,18.60
2018-06-11T06:33:45.289Z,18.10
2018-06-11T06:34:45.337Z,18.70
2018-06-11T06:35:45.295Z,19.10
2018-06-11T06:36:45.294Z,18.90
2018-06-11T06:37:45.297Z,19.10
2018-06-11T06:38:45.298Z,18.40
2018-06-11T06:39:45.301Z,19.20
2018-06-11T06:40:45.301Z,18.90
2018-06-11T06:41:45.304Z,18.90
2018-06-11T06:42:45.306Z,18.60
2018-06-11T06:43:45.305Z,19.40
2018-06-11T06:44:45.307Z,19.00
2018-06-11T06:45:45.307Z,18.60
2018-06-11T06:46:45.315Z,18.10
2018-06-11T06:47:45.313Z,18.00
2018-06-11T06:48:45.312Z,18.40
2018-06-11T06:49:45.317Z,18.30
2018-06-11T06:50:45.318Z,17.60
2018-06-11T06:51:45.320Z,17.40
2018-06-11T06:52:45.328Z,17.30
2018-06-11T06:53:45.371Z,16.80
2018-06-11T06:54:45.326Z,17.30
2018-06-11T06:55:45.327Z,18.50
2018-06-11T06:56:45.328Z,18.00
2018-06-11T06:57:45.338Z,18.80
2018-06-11T06:58:45.335Z,17.70
2018-06-11T06:59:45.333Z,17.30
2018-06-11T07:00:45.338Z,16.90
2018-06-11T07:01:45.337Z,16.50
2018-06-11T07:02:45.339Z,17.00
2018-06-11T07:03:45.342Z,17.10
2018-06-11T07:04:45.341Z,17.20
2018-06-11T07:05:45.347Z,17.00
2018-06-11T07:06:45.348Z,17.20
2018-06-11T07:07:45.349Z,17.30
2018-06-11T07:08:45.350Z,17.50
2018-06-11T07:09:45.358Z,17.80
2018-06-11T07:10:45.357Z,16.60
2018-06-11T07:11:45.357Z,16.30
2018-06-11T07:12:45.360Z,16.80
2018-06-11T07:13:45.403Z,16.20
2018-06-11T07:14:45.364Z,14.90
2018-06-11T07:15:45.365Z,15.50
2018-06-11T07:16:45.370Z,15.10
2018-06-11T07:17:45.372Z,15.10
2018-06-11T07:18:45.376Z,15.10
2018-06-11T07:19:45.375Z,15.40
2018-06-11T07:20:45.379Z,16.10
2018-06-11T07:21:45.382Z,16.60
2018-06-11T07:22:45.384Z,15.50
2018-06-11T07:23:45.389Z,15.50
2018-06-11T07:24:45.389Z,15.70
2018-06-11T07:25:45.392Z,15.60
2018-06-11T07:26:45.394Z,15.90
2018-06-11T07:27:45.396Z,15.90
2018-06-11T07:28:45.398Z,16.00
2018-06-11T07:29:45.402Z,16.50
2018-06-11T07:30:45.405Z,15.80
2018-06-11T07:31:45.406Z,16.10
2018-06-11T07:32:45.409Z,16.00
2018-06-11T07:33:45.411Z,15.90
2018-06-11T07:34:45.417Z,15.50
2018-06-11T07:35:45.416Z,15.80
2018-06-11T07:36:45.420Z,15.60
2018-06-11T07:37:45.426Z,16.20
2018-06-11T07:38:45.420Z,15.50
2018-06-11T07:39:45.456Z,14.50
2018-06-11T07:40:45.430Z,14.80
2018-06-11T07:41:45.475Z,15.00
2018-06-11T07:42:45.436Z,14.20
2018-06-11T07:43:45.452Z,14.90
2018-06-11T07:44:45.458Z,14.30
2018-06-11T07:45:45.445Z,13.20
2018-06-11T07:46:45.449Z,13.20
2018-06-11T07:47:45.492Z,13.70
2018-06-11T07:48:45.459Z,13.70
2018-06-11T07:49:45.461Z,13.50
2018-06-11T07:50:45.469Z,13.10
2018-06-11T07:51:45.483Z,13.30
2018-06-11T07:52:45.522Z,13.10
2018-06-11T07:53:45.474Z,12.50
2018-06-11T07:54:45.476Z,12.80
2018-06-11T07:55:45.504Z,13.10
2018-06-11T07:56:45.485Z,12.80
2018-06-11T07:57:45.491Z,12.70
2018-06-11T07:58:45.497Z,12.50
2018-06-11T07:59:45.501Z,12.40
2018-06-11T08:00:45.508Z,11.80
2018-06-11T08:01:45.509Z,11.80
2018-06-11T08:02:45.543Z,11.40
2018-06-11T08:03:45.520Z,12.20
2018-06-11T08:04:45.524Z,12.10
2018-06-11T08:05:45.582Z,12.30
2018-06-11T08:06:45.546Z,12.20
2018-06-11T08:07:45.538Z,11.70
2018-06-11T08:08:45.549Z,12.30
2018-06-11T08:09:45.799Z,12.40
2018-06-11T08:10:45.555Z,12.40
2018-06-11T08:11:45.562Z,13.50
2018-06-11T08:12:45.567Z,13.00
2018-06-11T08:13:45.652Z,13.10
2018-06-11T08:14:45.582Z,13.30
2018-06-11T08:15:45.581Z,12.50
2018-06-11T08:16:45.585Z,12.30
2018-06-11T08:17:45.591Z,12.70
2018-06-11T08:18:45.595Z,13.10
2018-06-11T08:19:45.598Z,13.10
2018-06-11T08:20:45.791Z,13.30
2018-06-11T08:21:45.611Z,13.20
2018-06-11T08:22:45.613Z,13.20
2018-06-11T08:23:45.615Z,12.30
2018-06-11T08:24:45.650Z,12.80
2018-06-11T08:25:45.625Z,12.80
2018-06-11T08:26:45.759Z,12.70
2018-06-11T08:27:45.633Z,12.90
2018-06-11T08:28:45.638Z,12.50
2018-06-11T08:29:45.646Z,12.10
2018-06-11T08:30:45.652Z,11.80
2018-06-11T08:31:45.650Z,12.20
2018-06-11T08:32:45.655Z,11.90
2018-06-11T08:33:45.662Z,11.30
2018-06-11T08:34:45.705Z,11.90
2018-06-11T08:35:45.729Z,12.40
2018-06-11T08:36:45.675Z,11.60
2018-06-11T08:37:45.671Z,12.20
2018-06-11T08:38:45.681Z,12.50
2018-06-11T08:39:45.752Z,12.30
2018-06-11T08:40:45.684Z,12.30
2018-06-11T08:41:45.693Z,12.10
2018-06-11T08:42:45.696Z,12.40
2018-06-11T08:43:45.698Z,12.60
2018-06-11T08:44:45.703Z,13.00
2018-06-11T08:45:45.706Z,13.40
2018-06-11T08:46:45.712Z,13.20
2018-06-11T08:47:45.714Z,12.90
2018-06-11T08:48:45.719Z,13.60
2018-06-11T08:49:45.725Z,13.10
2018-06-11T08:50:45.727Z,12.80
2018-06-11T08:51:45.728Z,12.90
2018-06-11T08:52:45.734Z,12.10
2018-06-11T08:53:45.740Z,11.70
2018-06-11T08:54:45.775Z,11.60
2018-06-11T08:55:45.744Z,10.60
2018-06-11T08:56:45.751Z,11.50
2018-06-11T08:57:45.753Z,11.30
2018-06-11T08:58:45.757Z,11.50
2018-06-11T08:59:45.772Z,10.70
2018-06-11T09:00:45.763Z,11.30
2018-06-11T09:01:45.772Z,10.90
2018-06-11T09:02:45.774Z,11.30
2018-06-11T09:03:45.782Z,11.40
2018-06-11T09:04:45.784Z,10.20
2018-06-11T09:05:45.787Z,10.20
2018-06-11T09:06:45.828Z,9.80
2018-06-11T09:07:45.794Z,10.20
2018-06-11T09:08:45.799Z,9.70
2018-06-11T09:09:45.802Z,9.70
2018-06-11T09:10:45.806Z,9.70
2018-06-11T09:11:45.809Z,10.00
2018-06-11T09:12:45.816Z,10.00
2018-06-11T09:13:45.822Z,9.60
2018-06-11T09:14:45.825Z,10.10
2018-06-11T09:15:45.825Z,9.90
2018-06-11T09:16:45.832Z,9.70
2018-06-11T09:17:45.839Z,9.50
2018-06-11T09:18:45.843Z,9.40
2018-06-11T09:19:45.842Z,8.70
2018-06-11T09:20:45.847Z,9.10
2018-06-11T09:21:45.850Z,9.30
2018-06-11T09:22:45.855Z,8.90
2018-06-11T09:23:45.858Z,9.50
2018-06-11T09:24:45.860Z,9.10
2018-06-11T09:25:45.866Z,9.40
2018-06-11T09:26:45.869Z,9.20
2018-06-11T09:27:45.874Z,8.80
2018-06-11T09:28:45.874Z,8.90
2018-06-11T09:29:45.879Z,9.20
2018-06-11T09:30:45.935Z,8.40
2018-06-11T09:31:45.889Z,8.90
2018-06-11T09:32:45.891Z,8.50
2018-06-11T09:33:45.893Z,8.20
2018-06-11T09:34:45.896Z,8.10
2018-06-11T09:35:45.902Z,7.60
2018-06-11T09:36:45.903Z,8.20
2018-06-11T09:37:45.910Z,8.00
2018-06-11T09:38:45.910Z,7.80
2018-06-11T09:39:45.913Z,7.60
2018-06-11T09:40:45.917Z,7.80
2018-06-11T09:41:45.922Z,7.80
2018-06-11T09:42:45.919Z,7.20
2018-06-11T09:43:45.972Z,7.50
2018-06-11T09:44:45.929Z,7.50
2018-06-11T09:45:45.934Z,7.00
2018-06-11T09:46:45.937Z,6.80
2018-06-11T09:47:45.941Z,6.70
2018-06-11T09:48:45.944Z,6.40
2018-06-11T09:49:45.947Z,6.10
2018-06-11T09:50:46.054Z,6.10
2018-06-11T09:51:45.955Z,6.40
2018-06-11T09:52:45.956Z,6.20
2018-06-11T09:53:45.961Z,5.90
2018-06-11T09:54:45.964Z,6.00
2018-06-11T09:55:45.989Z,5.70
2018-06-11T09:56:45.971Z,5.60
2018-06-11T09:57:45.975Z,5.30
2018-06-11T09:58:45.978Z,5.20
2018-06-11T09:59:45.980Z,5.30
2018-06-11T10:00:45.983Z,5.20
2018-06-11T10:01:45.986Z,5.30
2018-06-11T10:02:46.150Z,5.70
2018-06-11T10:03:45.995Z,5.90
2018-06-11T10:04:45.997Z,5.10
2018-06-11T10:05:46.001Z,4.90
2018-06-11T10:06:46.005Z,5.00
2018-06-11T10:07:46.010Z,5.00
2018-06-11T10:08:46.011Z,5.10
2018-06-11T10:09:46.015Z,5.10
2018-06-11T10:10:46.017Z,4.80
2018-06-11T10:11:46.019Z,4.80
2018-06-11T10:12:46.215Z,4.70
2018-06-11T10:13:46.030Z,4.60
2018-06-11T10:14:46.031Z,4.50
2018-06-11T10:15:46.033Z,4.40
2018-06-11T10:16:46.037Z,4.70
2018-06-11T10:17:46.185Z,4.40
2018-06-11T10:18:46.042Z,4.50
2018-06-11T10:19:46.046Z,4.80
2018-06-11T10:20:46.048Z,4.60
2018-06-11T10:21:46.053Z,4.30
2018-06-11T10:22:46.057Z,4.20
2018-06-11T10:23:46.060Z,3.90
2018-06-11T10:24:46.117Z,4.00
2018-06-11T10:25:46.067Z,4.00
2018-06-11T10:26:46.073Z,4.40
2018-06-11T10:27:46.073Z,4.10
2018-06-11T10:28:46.074Z,4.20
2018-06-11T10:29:46.228Z,4.10
2018-06-11T10:30:46.088Z,4.20
2018-06-11T10:31:46.094Z,4.20
2018-06-11T10:32:46.098Z,4.20
2018-06-11T10:33:46.095Z,4.30
2018-06-11T10:34:46.450Z,4.00
2018-06-11T10:35:46.103Z,4.00
2018-06-11T10:36:46.106Z,4.30
2018-06-11T10:37:46.110Z,3.80
2018-06-11T10:38:46.114Z,3.90
2018-06-11T10:39:46.121Z,3.90
2018-06-11T10:40:46.128Z,3.90
2018-06-11T10:41:46.128Z,3.90
2018-06-11T10:42:46.314Z,3.60
2018-06-11T10:43:46.138Z,3.60
2018-06-11T10:44:46.330Z,3.90
2018-06-11T10:45:46.149Z,3.80
2018-06-11T10:46:46.148Z,3.80
2018-06-11T10:47:46.415Z,4.00
2018-06-11T10:48:46.156Z,4.00
2018-06-11T10:49:46.161Z,4.00
2018-06-11T10:50:46.164Z,3.80
2018-06-11T10:51:46.168Z,4.00
2018-06-11T10:52:46.171Z,4.00
2018-06-11T10:53:46.175Z,4.20
2018-06-11T10:54:46.180Z,4.20
2018-06-11T10:55:46.187Z,3.80
2018-06-11T10:56:46.387Z,3.60
2018-06-11T10:57:46.191Z,3.50
2018-06-11T10:58:46.197Z,3.60
2018-06-11T10:59:46.199Z,3.60
2018-06-11T11:00:46.203Z,3.60
2018-06-11T11:01:46.208Z,3.50
2018-06-11T11:02:46.253Z,3.40
2018-06-11T11:03:46.217Z,3.50
2018-06-11T11:04:46.221Z,3.50
2018-06-11T11:05:46.260Z,3.50
2018-06-11T11:06:46.229Z,3.60
2018-06-11T11:07:46.228Z,3.20
2018-06-11T11:08:46.240Z,3.30
2018-06-11T11:09:46.237Z,3.40
2018-06-11T11:10:46.241Z,3.40
2018-06-11T11:11:46.244Z,3.30
2018-06-11T11:12:46.248Z,3.40
2018-06-11T11:13:46.447Z,3.20
2018-06-11T11:14:46.259Z,3.50
2018-06-11T11:15:46.263Z,3.40
2018-06-11T11:16:46.269Z,3.50
2018-06-11T11:17:46.408Z,3.50
2018-06-11T11:18:46.527Z,3.20
2018-06-11T11:19:46.273Z,3.30
2018-06-11T11:20:46.359Z,3.20
2018-06-11T11:21:46.281Z,3.40
2018-06-11T11:22:46.283Z,3.40
2018-06-11T11:23:46.400Z,3.00
2018-06-11T11:24:46.560Z,3.40
2018-06-11T11:25:46.517Z,3.10
2018-06-11T11:26:46.301Z,3.70
2018-06-11T11:27:46.301Z,3.00
2018-06-11T11:28:46.397Z,3.30
2018-06-11T11:29:46.308Z,3.30
2018-06-11T11:30:46.311Z,3.50
2018-06-11T11:31:46.318Z,3.00
2018-06-11T11:32:46.319Z,3.30
2018-06-11T11:33:46.334Z,3.10
2018-06-11T11:34:46.333Z,2.90
2018-06-11T11:35:46.331Z,2.90
2018-06-11T11:36:46.335Z,3.20
2018-06-11T11:37:46.334Z,2.90
2018-06-11T11:38:46.340Z,3.00
2018-06-11T11:39:46.569Z,2.90
2018-06-11T11:40:46.347Z,3.00
2018-06-11T11:41:46.350Z,3.10
2018-06-11T11:42:46.352Z,2.80
2018-06-11T11:43:46.355Z,2.80
2018-06-11T11:44:46.358Z,2.80
2018-06-11T11:45:46.361Z,2.80
2018-06-11T11:46:46.373Z,2.80
2018-06-11T11:47:46.447Z,2.90
2018-06-11T11:48:46.371Z,2.80
2018-06-11T11:49:46.390Z,2.70
2018-06-11T11:50:46.377Z,2.80
2018-06-11T11:51:46.432Z,2.80
2018-06-11T11:52:46.383Z,2.90
2018-06-11T11:53:46.388Z,3.00
2018-06-11T11:54:46.396Z,3.10
2018-06-11T11:55:46.396Z,2.80
2018-06-11T11:56:46.400Z,2.90
2018-06-11T11:57:46.403Z,2.80
2018-06-11T11:58:46.405Z,2.80
2018-06-11T11:59:46.457Z,2.80
2018-06-11T12:00:46.410Z,2.60
2018-06-11T12:01:46.434Z,2.40
2018-06-11T12:02:46.417Z,2.90
2018-06-11T12:03:46.424Z,3.00
2018-06-11T12:04:46.426Z,2.80
2018-06-11T12:05:46.466Z,2.80
2018-06-11T12:06:46.680Z,2.70
2018-06-11T12:07:46.431Z,2.50
2018-06-11T12:08:46.429Z,2.50
2018-06-11T12:09:46.434Z,2.60
2018-06-11T12:10:46.440Z,2.50
2018-06-11T12:11:46.443Z,2.30
2018-06-11T12:12:46.508Z,2.50
2018-06-11T12:13:46.464Z,2.60
2018-06-11T12:14:46.465Z,2.60
2018-06-11T12:15:46.450Z,2.60
2018-06-11T12:16:46.454Z,2.70
2018-06-11T12:17:46.459Z,2.70
2018-06-11T12:18:46.461Z,2.50
2018-06-11T12:19:46.464Z,2.30
2018-06-11T12:20:46.467Z,2.40
2018-06-11T12:21:46.470Z,2.40
2018-06-11T12:22:46.475Z,2.20
2018-06-11T12:23:46.476Z,2.50
2018-06-11T12:24:46.480Z,2.40
2018-06-11T12:25:46.483Z,2.30
2018-06-11T12:26:46.485Z,2.20
2018-06-11T12:27:46.491Z,2.10
2018-06-11T12:28:46.492Z,2.20
2018-06-11T12:29:46.496Z,2.20
2018-06-11T12:30:46.498Z,2.40
2018-06-11T12:31:46.498Z,2.40
2018-06-11T12:32:46.505Z,2.30
2018-06-11T12:33:46.508Z,2.40
2018-06-11T12:34:46.673Z,2.40
2018-06-11T12:35:46.515Z,2.20
2018-06-11T12:36:46.518Z,2.10
2018-06-11T12:37:46.521Z,2.40
2018-06-11T12:38:46.525Z,2.10
2018-06-11T12:39:46.538Z,2.20
2018-06-11T12:40:46.530Z,2.50
2018-06-11T12:41:46.535Z,2.50
2018-06-11T12:42:46.537Z,2.50
2018-06-11T12:43:46.542Z,2.30
2018-06-11T12:44:46.547Z,2.30
2018-06-11T12:45:46.550Z,2.40
2018-06-11T12:46:46.550Z,2.20
2018-06-11T12:47:46.553Z,2.10
2018-06-11T12:48:46.556Z,2.40
2018-06-11T12:49:46.561Z,2.70
2018-06-11T12:50:46.561Z,2.30
2018-06-11T12:51:46.567Z,2.40
2018-06-11T12:52:46.624Z,2.40
2018-06-11T12:53:46.571Z,2.40
2018-06-11T12:54:46.572Z,2.30
2018-06-11T12:55:46.577Z,2.40
2018-06-11T12:56:46.584Z,2.50
2018-06-11T12:57:46.583Z,2.30
2018-06-11T12:58:46.584Z,2.50
2018-06-11T12:59:46.590Z,2.20
2018-06-11T13:00:46.596Z,2.30